Riyadh, Saudi Arabia
Current Conditions -  °F | °C
As of 11:00 AM on Tuesday 27 Jan 2015 (Local Time) from OERY Reporting Station
Clear Clear  
Wind Chill: 22°   Ceiling: Unl
Heat Index: 22°   Visibility: 5mi
Dew Point: -2°   Wind: 5mph
Humidity: 20%   Direction: 230°SW
Pressure: 30.18"   Gusts: NA
Location:  24.65°N, 46.77°E
Report Text: OERY 270800Z 23004KT 8000 SKC 22/M02 Q1022
Loading
Personal Weather Stations






























Interactive Weather Map New forecast layout! Learn more

10-Day Weather Forecast

Advertisements
Track Severe Weather on mobile